Time;durP1;ratioP1;P1;durP2;ratioP2;P2;SDS_P1;SDS_P2;PMS_P1;PMS_P2;Temp;Humidity;BMP_temperature;BMP_pressure;BME280_temperature;BME280_humidity;BME280_pressure;Samples;Min_cycle;Max_cycle;Signal;HPM_P1;HPM_P2
2023/09/17 00:00:11;;;;;;;26.05;21.13;;;;;;;;;;5110140;28;20026;-62
2023/09/17 00:02:37;;;;;;;29.77;21.52;;;;;;;;;;5110250;27;20528;-61
2023/09/17 00:05:03;;;;;;;25.13;20.15;;;;;;;;;;5108433;28;20046;-61
2023/09/17 00:07:30;;;;;;;24.92;21.83;;;;;;;;;;5101369;28;20080;-61
2023/09/17 00:09:56;;;;;;;26.80;21.00;;;;;;;;;;5109425;28;20031;-61
2023/09/17 00:12:22;;;;;;;24.30;20.52;;;;;;;;;;5110337;28;20020;-62
2023/09/17 00:14:49;;;;;;;29.77;22.85;;;;;;;;;;5110134;28;20085;-62
2023/09/17 00:17:15;;;;;;;27.27;22.08;;;;;;;;;;5110721;28;20028;-62
2023/09/17 00:19:41;;;;;;;25.80;21.65;;;;;;;;;;5108763;28;20018;-61
2023/09/17 00:22:09;;;;;;;26.27;21.70;;;;;;;;;;5110535;28;20477;-62
2023/09/17 00:24:35;;;;;;;27.02;21.55;;;;;;;;;;5110706;28;20120;-63
2023/09/17 00:27:02;;;;;;;25.05;21.48;;;;;;;;;;5110558;28;20019;-61
2023/09/17 00:29:28;;;;;;;24.58;21.33;;;;;;;;;;5110527;28;20047;-62
2023/09/17 00:31:53;;;;;;;26.52;22.70;;;;;;;;;;5118647;27;20099;-63
2023/09/17 00:34:19;;;;;;;24.88;21.00;;;;;;;;;;5103148;28;20443;-62
2023/09/17 00:36:46;;;;;;;26.00;20.95;;;;;;;;;;5107003;28;20055;-62
2023/09/17 00:39:12;;;;;;;26.23;21.20;;;;;;;;;;5110087;28;20045;-62
2023/09/17 00:41:38;;;;;;;26.48;21.70;;;;;;;;;;5110556;28;20485;-62
2023/09/17 00:44:04;;;;;;;26.13;21.20;;;;;;;;;;5117936;27;20031;-63
2023/09/17 00:46:31;;;;;;;25.25;21.55;;;;;;;;;;5109110;28;20028;-63
2023/09/17 00:48:58;;;;;;;27.05;21.13;;;;;;;;;;5110168;28;20044;-62
2023/09/17 00:51:25;;;;;;;26.30;21.73;;;;;;;;;;5109948;28;20073;-62
2023/09/17 00:53:51;;;;;;;25.55;20.58;;;;;;;;;;5113404;28;20023;-60
2023/09/17 00:56:17;;;;;;;26.33;21.15;;;;;;;;;;5114144;28;20031;-62
2023/09/17 00:58:43;;;;;;;27.48;21.77;;;;;;;;;;5114174;28;20130;-61
2023/09/17 01:01:12;;;;;;;26.10;21.08;;;;;;;;;;5111549;28;20119;-63
2023/09/17 01:03:39;;;;;;;28.48;21.02;;;;;;;;;;5097128;28;20034;-63
2023/09/17 01:06:06;;;;;;;27.17;21.30;;;;;;;;;;5114200;28;20106;-63
2023/09/17 01:08:33;;;;;;;26.20;22.35;;;;;;;;;;5114119;28;20043;-63
2023/09/17 01:10:59;;;;;;;25.52;21.88;;;;;;;;;;5105474;28;20027;-63
2023/09/17 01:13:25;;;;;;;25.90;22.05;;;;;;;;;;5113977;28;20077;-63
2023/09/17 01:15:52;;;;;;;25.70;21.90;;;;;;;;;;5113542;27;20015;-62
2023/09/17 01:18:21;;;;;;;26.00;21.75;;;;;;;;;;5112415;28;20043;-62
2023/09/17 01:21:02;;;;;;;31.00;23.70;;;;;;;;;;5113553;28;20429;-62
2023/09/17 01:23:49;;;;;;;25.70;21.73;;;;;;;;;;5113666;27;20034;-62
2023/09/17 01:26:17;;;;;;;26.15;22.45;;;;;;;;;;5102590;28;20382;-63
2023/09/17 01:28:43;;;;;;;27.70;22.73;;;;;;;;;;5113604;28;20027;-62
2023/09/17 01:31:09;;;;;;;25.60;21.95;;;;;;;;;;5113408;28;20028;-63
2023/09/17 01:33:35;;;;;;;27.35;22.17;;;;;;;;;;5113465;28;20393;-65
2023/09/17 01:36:07;;;;;;;25.67;22.30;;;;;;;;;;5113497;28;20088;-63
2023/09/17 01:38:38;;;;;;;28.50;22.77;;;;;;;;;;5121947;27;20059;-62
2023/09/17 01:41:04;;;;;;;28.17;23.20;;;;;;;;;;5112078;28;20060;-63
2023/09/17 01:43:31;;;;;;;27.50;23.23;;;;;;;;;;5113473;28;20024;-63
2023/09/17 01:45:58;;;;;;;29.88;22.27;;;;;;;;;;5113468;28;20019;-63
2023/09/17 01:48:25;;;;;;;27.40;22.60;;;;;;;;;;5113314;28;20492;-63
2023/09/17 01:50:52;;;;;;;30.10;23.70;;;;;;;;;;5112962;28;20027;-63
2023/09/17 01:53:19;;;;;;;28.17;22.95;;;;;;;;;;5113160;28;20016;-63
2023/09/17 01:55:45;;;;;;;27.98;22.65;;;;;;;;;;5113114;28;20027;-63
2023/09/17 01:58:11;;;;;;;27.40;22.80;;;;;;;;;;5113267;28;20080;-63
2023/09/17 02:00:38;;;;;;;27.95;23.02;;;;;;;;;;5112949;28;20023;-61
2023/09/17 02:03:04;;;;;;;27.80;22.73;;;;;;;;;;5104291;28;20229;-63
2023/09/17 02:05:30;;;;;;;29.83;24.70;;;;;;;;;;5113017;28;20023;-62
2023/09/17 02:07:56;;;;;;;30.15;24.88;;;;;;;;;;5112918;28;20499;-64
2023/09/17 02:10:22;;;;;;;30.05;24.60;;;;;;;;;;5111191;28;20024;-62
2023/09/17 02:12:48;;;;;;;29.42;24.58;;;;;;;;;;5112847;28;20040;-63
2023/09/17 02:15:14;;;;;;;28.50;24.10;;;;;;;;;;5112865;28;20039;-63
2023/09/17 02:17:42;;;;;;;26.45;23.58;;;;;;;;;;5112796;28;20016;-63
2023/09/17 02:20:11;;;;;;;27.67;23.80;;;;;;;;;;5110982;28;20088;-61
2023/09/17 02:22:37;;;;;;;32.03;26.48;;;;;;;;;;5112554;28;20019;-63
2023/09/17 02:25:03;;;;;;;29.63;25.13;;;;;;;;;;5112597;28;20031;-62
2023/09/17 02:27:29;;;;;;;28.15;23.85;;;;;;;;;;5120931;27;20538;-62
2023/09/17 02:29:55;;;;;;;29.90;25.20;;;;;;;;;;5112008;28;20024;-63
2023/09/17 02:32:21;;;;;;;29.13;24.98;;;;;;;;;;5112604;28;20027;-63
2023/09/17 02:34:47;;;;;;;28.52;24.10;;;;;;;;;;5112360;28;20107;-62
2023/09/17 02:37:13;;;;;;;30.45;26.33;;;;;;;;;;5112233;28;20095;-62
2023/09/17 02:39:39;;;;;;;33.38;27.33;;;;;;;;;;5112143;28;20460;-63
2023/09/17 02:42:05;;;;;;;30.38;26.58;;;;;;;;;;5111767;28;20012;-63
2023/09/17 02:44:31;;;;;;;29.98;26.52;;;;;;;;;;5112324;28;20019;-63
2023/09/17 02:46:57;;;;;;;28.40;25.33;;;;;;;;;;5112236;28;20031;-63
2023/09/17 02:49:23;;;;;;;33.45;27.13;;;;;;;;;;5110738;28;20024;-62
2023/09/17 02:51:50;;;;;;;32.63;26.38;;;;;;;;;;5111795;27;20019;-62
2023/09/17 02:54:17;;;;;;;31.98;26.58;;;;;;;;;;5102585;28;20020;-63
2023/09/17 02:56:43;;;;;;;31.88;27.92;;;;;;;;;;5110221;28;20507;-63
2023/09/17 02:59:09;;;;;;;31.23;27.15;;;;;;;;;;5112149;28;20023;-63
2023/09/17 03:01:35;;;;;;;31.80;25.90;;;;;;;;;;5111484;27;20038;-63
2023/09/17 03:04:01;;;;;;;31.60;25.90;;;;;;;;;;5110398;28;20389;-63
2023/09/17 03:06:29;;;;;;;30.33;26.05;;;;;;;;;;5111759;28;20519;-62
2023/09/17 03:08:55;;;;;;;30.95;25.02;;;;;;;;;;5111352;28;20022;-63
2023/09/17 03:11:23;;;;;;;31.52;26.88;;;;;;;;;;5111464;28;20447;-63
2023/09/17 03:13:50;;;;;;;29.92;25.10;;;;;;;;;;5111382;28;20459;-63
2023/09/17 03:16:17;;;;;;;31.70;25.67;;;;;;;;;;5111001;27;20107;-61
2023/09/17 03:18:43;;;;;;;30.45;26.42;;;;;;;;;;5111509;28;20045;-63
2023/09/17 03:21:09;;;;;;;32.40;25.55;;;;;;;;;;5111235;28;20439;-63
2023/09/17 03:23:35;;;;;;;29.73;26.15;;;;;;;;;;5111136;28;20027;-61
2023/09/17 03:26:03;;;;;;;30.30;25.35;;;;;;;;;;5110127;28;20537;-61
2023/09/17 03:28:29;;;;;;;31.37;26.13;;;;;;;;;;5111590;28;20510;-63
2023/09/17 03:30:55;;;;;;;32.78;26.08;;;;;;;;;;5119200;27;20285;-63
2023/09/17 03:33:22;;;;;;;33.65;25.10;;;;;;;;;;5109628;28;20019;-62
2023/09/17 03:35:48;;;;;;;32.25;24.85;;;;;;;;;;5111332;28;20024;-62
2023/09/17 03:38:14;;;;;;;29.60;24.52;;;;;;;;;;5110082;28;20068;-63
2023/09/17 03:40:40;;;;;;;30.02;25.33;;;;;;;;;;5111157;28;20032;-63
2023/09/17 03:43:06;;;;;;;29.90;25.33;;;;;;;;;;5111094;28;20145;-63
2023/09/17 03:45:32;;;;;;;31.13;25.42;;;;;;;;;;5111168;28;20051;-62
2023/09/17 03:47:58;;;;;;;29.45;25.48;;;;;;;;;;5111035;28;20522;-61
2023/09/17 03:50:24;;;;;;;32.30;25.60;;;;;;;;;;5110746;28;20024;-63
2023/09/17 03:52:53;;;;;;;28.45;24.60;;;;;;;;;;5102779;28;20027;-63
2023/09/17 03:55:20;;;;;;;30.45;24.27;;;;;;;;;;5110894;28;20418;-63
2023/09/17 03:57:46;;;;;;;31.95;26.48;;;;;;;;;;5111127;28;20438;-63
2023/09/17 04:00:14;;;;;;;30.17;25.73;;;;;;;;;;5110936;28;20026;-63
2023/09/17 04:02:41;;;;;;;28.17;23.33;;;;;;;;;;5110850;28;20031;-63
2023/09/17 04:05:10;;;;;;;30.02;24.98;;;;;;;;;;5109509;28;20273;-63
2023/09/17 04:07:36;;;;;;;30.38;26.48;;;;;;;;;;5110847;28;20440;-62
2023/09/17 04:10:05;;;;;;;30.20;25.70;;;;;;;;;;5110478;28;20039;-63
2023/09/17 04:12:31;;;;;;;30.63;24.50;;;;;;;;;;5118688;27;20015;-61
2023/09/17 04:14:57;;;;;;;31.55;25.45;;;;;;;;;;5110818;27;20019;-63
2023/09/17 04:17:23;;;;;;;30.83;24.85;;;;;;;;;;5110622;28;20043;-61
2023/09/17 04:19:50;;;;;;;31.88;24.83;;;;;;;;;;5110328;28;20036;-63
2023/09/17 04:22:16;;;;;;;30.80;25.25;;;;;;;;;;5109550;28;20462;-62
2023/09/17 04:24:42;;;;;;;28.98;24.88;;;;;;;;;;5118908;27;20028;-62
2023/09/17 04:27:08;;;;;;;30.30;25.85;;;;;;;;;;5112982;28;20023;-67
2023/09/17 04:29:36;;;;;;;29.92;26.15;;;;;;;;;;5122930;27;20024;-63
2023/09/17 04:32:02;;;;;;;32.67;26.17;;;;;;;;;;5114599;28;20118;-63
2023/09/17 04:34:28;;;;;;;30.52;25.23;;;;;;;;;;5123013;27;20051;-63
2023/09/17 04:36:54;;;;;;;30.92;26.13;;;;;;;;;;5114625;28;20026;-63
2023/09/17 04:39:20;;;;;;;32.70;26.48;;;;;;;;;;5114302;27;20481;-62
2023/09/17 04:41:46;;;;;;;34.92;27.30;;;;;;;;;;5114225;28;20070;-63
2023/09/17 04:44:12;;;;;;;28.92;24.85;;;;;;;;;;5122914;27;20024;-62
2023/09/17 04:46:40;;;;;;;37.42;26.98;;;;;;;;;;5114419;28;20067;-63
2023/09/17 04:49:07;;;;;;;30.33;27.05;;;;;;;;;;5121541;27;20020;-61
2023/09/17 04:51:34;;;;;;;31.92;27.23;;;;;;;;;;5113828;28;20047;-62
2023/09/17 04:54:00;;;;;;;31.92;27.00;;;;;;;;;;5122558;27;20081;-61
2023/09/17 04:56:26;;;;;;;31.58;26.20;;;;;;;;;;5114164;28;20023;-62
2023/09/17 04:58:52;;;;;;;31.25;25.77;;;;;;;;;;5113930;28;20016;-62
2023/09/17 05:01:18;;;;;;;37.65;33.55;;;;;;;;;;5113804;28;20031;-62
2023/09/17 05:03:46;;;;;;;40.38;36.03;;;;;;;;;;5122428;27;20163;-63
2023/09/17 05:06:12;;;;;;;33.15;28.42;;;;;;;;;;5114046;28;20035;-63
2023/09/17 05:08:38;;;;;;;32.80;28.50;;;;;;;;;;5121135;27;20496;-63
2023/09/17 05:11:05;;;;;;;31.40;27.80;;;;;;;;;;5113469;28;20042;-63
2023/09/17 05:13:31;;;;;;;30.55;26.55;;;;;;;;;;5113965;28;20065;-63
2023/09/17 05:15:57;;;;;;;32.80;27.52;;;;;;;;;;5113679;28;20027;-63
2023/09/17 05:18:23;;;;;;;31.92;28.27;;;;;;;;;;5113722;28;20044;-62
2023/09/17 05:20:53;;;;;;;32.83;28.70;;;;;;;;;;5113388;27;20093;-63
2023/09/17 05:23:19;;;;;;;37.55;32.33;;;;;;;;;;5113886;28;20511;-63
2023/09/17 05:25:45;;;;;;;35.83;30.75;;;;;;;;;;5113551;28;20020;-63
2023/09/17 05:28:11;;;;;;;36.75;31.20;;;;;;;;;;5110288;27;20488;-63
2023/09/17 05:30:37;;;;;;;35.25;29.02;;;;;;;;;;5116397;27;20020;-62
2023/09/17 05:33:04;;;;;;;34.75;30.85;;;;;;;;;;5113177;28;20361;-63
2023/09/17 05:35:31;;;;;;;40.83;36.38;;;;;;;;;;5113249;27;20040;-62
2023/09/17 05:37:57;;;;;;;38.22;34.03;;;;;;;;;;5112554;28;20023;-63
2023/09/17 05:40:23;;;;;;;32.95;29.27;;;;;;;;;;5112991;27;20485;-63
2023/09/17 05:42:49;;;;;;;41.03;33.05;;;;;;;;;;5105115;28;20042;-63
2023/09/17 05:45:15;;;;;;;37.90;31.08;;;;;;;;;;5112124;28;20023;-60
2023/09/17 05:47:42;;;;;;;35.47;31.48;;;;;;;;;;5106390;28;20099;-63
2023/09/17 05:50:09;;;;;;;39.00;32.63;;;;;;;;;;5112209;28;20020;-63
2023/09/17 05:52:35;;;;;;;34.00;30.27;;;;;;;;;;5109356;28;20069;-60
2023/09/17 05:55:03;;;;;;;37.63;30.42;;;;;;;;;;5104365;28;20019;-61
2023/09/17 05:57:29;;;;;;;;;;;;;;;;;;5113579;28;20023;-63
2023/09/17 05:59:55;;;;;;;36.28;29.50;;;;;;;;;;5104623;28;19911;-62
2023/09/17 06:02:21;;;;;;;36.13;31.50;;;;;;;;;;5112838;28;20427;-62
2023/09/17 06:04:52;;;;;;;35.13;30.83;;;;;;;;;;5121491;27;20461;-62
2023/09/17 06:07:18;;;;;;;35.25;30.50;;;;;;;;;;5112805;28;20023;-63
2023/09/17 06:09:44;;;;;;;34.53;30.77;;;;;;;;;;5121029;27;20507;-64
2023/09/17 06:12:10;;;;;;;34.10;30.40;;;;;;;;;;5112705;28;20023;-60
2023/09/17 06:14:36;;;;;;;34.20;30.25;;;;;;;;;;5119399;27;20023;-63
2023/09/17 06:17:02;;;;;;;32.92;29.42;;;;;;;;;;5105028;28;20500;-61
2023/09/17 06:19:29;;;;;;;35.17;30.20;;;;;;;;;;5121138;27;20032;-61
2023/09/17 06:21:55;;;;;;;34.30;30.35;;;;;;;;;;5112179;28;20032;-63
2023/09/17 06:24:21;;;;;;;33.03;29.42;;;;;;;;;;5112822;28;20039;-62
2023/09/17 06:26:47;;;;;;;35.65;30.75;;;;;;;;;;5112419;28;20527;-61
2023/09/17 06:29:13;;;;;;;34.28;30.27;;;;;;;;;;5112496;28;20458;-61
2023/09/17 06:31:40;;;;;;;35.25;30.02;;;;;;;;;;5111750;28;20020;-62
2023/09/17 06:34:06;;;;;;;33.45;28.80;;;;;;;;;;5109942;27;20024;-61
2023/09/17 06:36:32;;;;;;;32.53;28.27;;;;;;;;;;5099473;28;20020;-62
2023/09/17 06:38:58;;;;;;;34.40;28.30;;;;;;;;;;5111463;28;20452;-62
2023/09/17 06:41:24;;;;;;;33.13;28.50;;;;;;;;;;5111678;28;20016;-61
2023/09/17 06:43:50;;;;;;;32.03;27.50;;;;;;;;;;5111674;28;20097;-62
2023/09/17 06:46:16;;;;;;;33.63;29.58;;;;;;;;;;5111828;28;20060;-66
2023/09/17 06:48:42;;;;;;;34.72;29.58;;;;;;;;;;5111738;27;20382;-61
2023/09/17 06:51:08;;;;;;;31.33;27.92;;;;;;;;;;5114724;27;20035;-63
2023/09/17 06:53:34;;;;;;;32.50;28.48;;;;;;;;;;5113945;27;20097;-61
2023/09/17 06:56:00;;;;;;;32.22;26.40;;;;;;;;;;5111595;27;20035;-61
2023/09/17 06:58:26;;;;;;;33.33;27.52;;;;;;;;;;5111492;27;20051;-62
2023/09/17 07:00:53;;;;;;;30.50;26.58;;;;;;;;;;5108757;28;20032;-63
2023/09/17 07:03:19;;;;;;;32.60;26.80;;;;;;;;;;5104164;27;20023;-62
2023/09/17 07:05:45;;;;;;;32.00;27.13;;;;;;;;;;5110004;28;20027;-61
2023/09/17 07:08:11;;;;;;;31.65;27.92;;;;;;;;;;5111319;28;20020;-61
2023/09/17 07:10:37;;;;;;;29.98;26.65;;;;;;;;;;5110857;27;20024;-62
2023/09/17 07:13:03;;;;;;;30.88;27.45;;;;;;;;;;5110012;28;20027;-61
2023/09/17 07:15:30;;;;;;;29.42;24.95;;;;;;;;;;5111799;28;20106;-59
2023/09/17 07:17:56;;;;;;;29.45;26.20;;;;;;;;;;5109225;28;20547;-61
2023/09/17 07:20:22;;;;;;;28.83;25.63;;;;;;;;;;5111208;28;20027;-61
2023/09/17 07:22:49;;;;;;;29.95;25.52;;;;;;;;;;5111419;28;20043;-61
2023/09/17 07:25:15;;;;;;;31.42;25.00;;;;;;;;;;5111084;28;20085;-61
2023/09/17 07:27:42;;;;;;;27.65;24.15;;;;;;;;;;5111273;28;20027;-60
2023/09/17 07:30:08;;;;;;;30.55;24.75;;;;;;;;;;5110908;28;20103;-61
2023/09/17 07:32:34;;;;;;;29.02;25.77;;;;;;;;;;5111126;28;20028;-61
2023/09/17 07:35:02;;;;;;;29.45;24.67;;;;;;;;;;5110931;28;20015;-60
2023/09/17 07:37:28;;;;;;;28.42;23.83;;;;;;;;;;5110697;28;20016;-61
2023/09/17 07:39:56;;;;;;;29.98;25.27;;;;;;;;;;5108891;28;20027;-61
2023/09/17 07:42:22;;;;;;;27.75;24.40;;;;;;;;;;5110639;28;20058;-59
2023/09/17 07:44:48;;;;;;;27.80;23.48;;;;;;;;;;5110782;28;20032;-54
2023/09/17 07:47:14;;;;;;;28.08;22.80;;;;;;;;;;5109231;28;20157;-52
2023/09/17 07:49:40;;;;;;;27.77;23.48;;;;;;;;;;5110633;28;20099;-50
2023/09/17 07:52:06;;;;;;;27.10;24.00;;;;;;;;;;5110758;28;20524;-52
2023/09/17 07:54:39;;;;;;;28.08;24.23;;;;;;;;;;5110673;28;20036;-49
2023/09/17 07:57:06;;;;;;;29.42;24.13;;;;;;;;;;5110890;28;20027;-51
2023/09/17 07:59:32;;;;;;;30.58;26.52;;;;;;;;;;5110911;28;20036;-58
2023/09/17 08:02:02;;;;;;;30.52;25.25;;;;;;;;;;5110390;28;20153;-47
2023/09/17 08:04:28;;;;;;;26.02;21.98;;;;;;;;;;5110901;28;20429;-51
2023/09/17 08:06:54;;;;;;;27.95;21.77;;;;;;;;;;5110940;28;20073;-53
2023/09/17 08:09:20;;;;;;;25.45;22.42;;;;;;;;;;5110950;28;20405;-53
2023/09/17 08:11:49;;;;;;;25.02;19.52;;;;;;;;;;5130480;27;20336;-51
2023/09/17 08:14:15;;;;;;;25.60;21.63;;;;;;;;;;5131469;27;20135;-49
2023/09/17 08:16:41;;;;;;;25.50;20.75;;;;;;;;;;5131389;27;20023;-49
2023/09/17 08:19:07;;;;;;;23.13;20.55;;;;;;;;;;5126440;27;20110;-52
2023/09/17 08:21:33;;;;;;;22.92;19.60;;;;;;;;;;5132300;27;20095;-54
2023/09/17 08:24:00;;;;;;;23.55;18.27;;;;;;;;;;5131066;27;20030;-49
2023/09/17 08:26:27;;;;;;;23.70;19.27;;;;;;;;;;5130076;28;20031;-49
2023/09/17 08:28:55;;;;;;;24.77;18.50;;;;;;;;;;5139461;27;20027;-53
2023/09/17 08:31:24;;;;;;;20.48;17.45;;;;;;;;;;5130631;27;20019;-52
2023/09/17 08:33:51;;;;;;;21.60;17.73;;;;;;;;;;5129980;27;20015;-51
2023/09/17 08:36:19;;;;;;;21.08;17.27;;;;;;;;;;5131019;27;20019;-52
2023/09/17 08:38:45;;;;;;;22.85;18.55;;;;;;;;;;5129700;27;20023;-53
2023/09/17 08:41:13;;;;;;;21.35;18.13;;;;;;;;;;5129213;27;20029;-48
2023/09/17 08:43:40;;;;;;;20.23;16.65;;;;;;;;;;5126207;27;20113;-51
2023/09/17 08:46:06;;;;;;;20.65;17.08;;;;;;;;;;5130749;27;20108;-54
2023/09/17 08:48:32;;;;;;;18.83;15.90;;;;;;;;;;5130924;27;20047;-51
2023/09/17 08:50:58;;;;;;;20.35;17.42;;;;;;;;;;5130476;27;20030;-53
2023/09/17 08:53:29;;;;;;;20.23;16.63;;;;;;;;;;5130808;27;20469;-50
2023/09/17 08:55:56;;;;;;;21.30;17.52;;;;;;;;;;5130863;27;20526;-48
2023/09/17 08:58:25;;;;;;;21.58;16.58;;;;;;;;;;5130942;27;20030;-52
2023/09/17 09:00:52;;;;;;;19.60;16.67;;;;;;;;;;5130716;27;20049;-49
2023/09/17 09:03:20;;;;;;;20.52;16.70;;;;;;;;;;5131239;27;20031;-50
2023/09/17 09:05:47;;;;;;;20.80;17.20;;;;;;;;;;5130847;27;20063;-47
2023/09/17 09:08:13;;;;;;;20.52;16.40;;;;;;;;;;5130851;27;20483;-52
2023/09/17 09:10:39;;;;;;;19.10;15.52;;;;;;;;;;5130198;27;20035;-55
2023/09/17 09:13:05;;;;;;;19.50;15.88;;;;;;;;;;5130846;27;20045;-54
2023/09/17 09:15:31;;;;;;;18.90;15.95;;;;;;;;;;5134628;27;20481;-49
2023/09/17 09:17:57;;;;;;;19.85;15.93;;;;;;;;;;5134428;27;20098;-56
2023/09/17 09:20:23;;;;;;;20.23;15.43;;;;;;;;;;5132602;27;20023;-51
2023/09/17 09:22:49;;;;;;;20.30;15.38;;;;;;;;;;5134499;27;20068;-49
2023/09/17 09:25:18;;;;;;;20.00;15.27;;;;;;;;;;5134292;27;20031;-51
2023/09/17 09:27:44;;;;;;;;;;;;;;;;;;5133209;27;20055;-54
2023/09/17 09:30:11;;;;;;;20.38;15.82;;;;;;;;;;5133913;27;20060;-52
2023/09/17 09:32:38;;;;;;;19.35;15.85;;;;;;;;;;5134193;27;20488;-51
2023/09/17 09:35:04;;;;;;;19.13;15.80;;;;;;;;;;5133846;27;20472;-51
2023/09/17 09:37:30;;;;;;;19.83;16.58;;;;;;;;;;5142347;27;20023;-55
2023/09/17 09:39:57;;;;;;;19.45;15.65;;;;;;;;;;5133423;27;20031;-55
2023/09/17 09:42:25;;;;;;;19.40;15.10;;;;;;;;;;5141166;27;20098;-50
2023/09/17 09:44:54;;;;;;;19.02;15.73;;;;;;;;;;5152719;27;20765;-52
2023/09/17 09:47:22;;;;;;;19.05;15.20;;;;;;;;;;5154573;27;20102;-61
2023/09/17 09:49:48;;;;;;;21.30;15.77;;;;;;;;;;5154277;27;20029;-58
2023/09/17 09:52:15;;;;;;;19.83;15.98;;;;;;;;;;5154169;27;20415;-57
2023/09/17 09:54:41;;;;;;;18.88;15.38;;;;;;;;;;5154629;27;20027;-56
2023/09/17 09:57:07;;;;;;;19.08;15.52;;;;;;;;;;5154641;27;20030;-53
2023/09/17 09:59:34;;;;;;;19.77;15.60;;;;;;;;;;5153231;27;20019;-60
2023/09/17 10:02:04;;;;;;;19.90;15.23;;;;;;;;;;5154183;27;20520;-59
2023/09/17 10:04:30;;;;;;;20.83;15.60;;;;;;;;;;5153872;27;20023;-60
2023/09/17 10:06:56;;;;;;;19.98;15.50;;;;;;;;;;5153624;27;20023;-60
2023/09/17 10:09:26;;;;;;;19.05;15.20;;;;;;;;;;5153970;27;20030;-60
2023/09/17 10:11:53;;;;;;;17.75;14.32;;;;;;;;;;5152612;27;20452;-61
2023/09/17 10:14:21;;;;;;;17.98;14.02;;;;;;;;;;5154534;27;20021;-60
2023/09/17 10:16:48;;;;;;;19.20;14.60;;;;;;;;;;5154063;27;20492;-59
2023/09/17 10:19:19;;;;;;;19.67;14.95;;;;;;;;;;5152460;27;20034;-58
2023/09/17 10:21:46;;;;;;;18.98;14.57;;;;;;;;;;5153564;27;20098;-61
2023/09/17 10:24:13;;;;;;;18.02;13.93;;;;;;;;;;5153552;27;20031;-62
2023/09/17 10:26:42;;;;;;;18.25;14.40;;;;;;;;;;5153853;27;20037;-61
2023/09/17 10:29:09;;;;;;;22.85;14.95;;;;;;;;;;5153440;27;20118;-62
2023/09/17 10:31:36;;;;;;;18.73;14.52;;;;;;;;;;5153586;27;20033;-62
2023/09/17 10:34:03;;;;;;;18.92;14.30;;;;;;;;;;5153258;27;20023;-58
2023/09/17 10:36:31;;;;;;;19.80;14.27;;;;;;;;;;5153371;27;20022;-61
2023/09/17 10:38:59;;;;;;;18.63;14.43;;;;;;;;;;5153649;27;20043;-62
2023/09/17 10:41:28;;;;;;;18.25;14.85;;;;;;;;;;5153179;27;20404;-62
2023/09/17 10:43:55;;;;;;;20.88;14.80;;;;;;;;;;5140658;27;20025;-62
2023/09/17 10:46:22;;;;;;;18.92;13.95;;;;;;;;;;5132486;27;20082;-62
2023/09/17 10:48:50;;;;;;;19.83;14.45;;;;;;;;;;5132647;27;20110;-62
2023/09/17 10:51:16;;;;;;;17.92;14.13;;;;;;;;;;5132276;27;20033;-62
2023/09/17 10:53:42;;;;;;;17.80;13.98;;;;;;;;;;5132476;27;20501;-61
2023/09/17 10:56:09;;;;;;;19.05;14.60;;;;;;;;;;5132358;27;20027;-61
2023/09/17 10:58:39;;;;;;;17.48;13.77;;;;;;;;;;5132882;27;20031;-62
2023/09/17 11:01:10;;;;;;;17.55;14.30;;;;;;;;;;5132350;27;20118;-59
2023/09/17 11:03:37;;;;;;;19.35;15.07;;;;;;;;;;5132231;27;20023;-61
2023/09/17 11:06:13;;;;;;;18.10;14.85;;;;;;;;;;5132154;27;20033;-60
2023/09/17 11:08:41;;;;;;;17.50;14.93;;;;;;;;;;5132309;27;20035;-58
2023/09/17 11:11:07;;;;;;;17.35;13.82;;;;;;;;;;5131835;27;20113;-61
2023/09/17 11:13:33;;;;;;;17.95;14.43;;;;;;;;;;5132185;27;20641;-60
2023/09/17 11:16:00;;;;;;;17.92;14.40;;;;;;;;;;5132337;27;20027;-62
2023/09/17 11:18:26;;;;;;;17.10;13.80;;;;;;;;;;5132100;27;20091;-58
2023/09/17 11:21:06;;;;;;;18.77;15.05;;;;;;;;;;5133291;27;20015;-62
2023/09/17 11:23:42;;;;;;;19.10;14.15;;;;;;;;;;5133586;27;20030;-59
2023/09/17 11:26:08;;;;;;;16.63;13.40;;;;;;;;;;5132059;27;20038;-60
2023/09/17 11:28:38;;;;;;;18.13;13.55;;;;;;;;;;5131973;27;20434;-59
2023/09/17 11:31:09;;;;;;;20.92;14.27;;;;;;;;;;5129888;27;20031;-59
2023/09/17 11:33:37;;;;;;;17.77;13.85;;;;;;;;;;5131544;27;20507;-58
2023/09/17 11:36:03;;;;;;;17.55;13.90;;;;;;;;;;5131161;27;20027;-58
2023/09/17 11:38:30;;;;;;;17.55;13.93;;;;;;;;;;5131896;27;20065;-56
2023/09/17 11:41:14;;;;;;;19.00;14.27;;;;;;;;;;5130008;27;20096;-59
2023/09/17 11:43:43;;;;;;;17.95;14.18;;;;;;;;;;5131336;27;20019;-59
2023/09/17 11:46:10;;;;;;;17.55;14.50;;;;;;;;;;5129999;27;20118;-60
2023/09/17 11:48:36;;;;;;;16.70;13.73;;;;;;;;;;5131215;27;20387;-58
2023/09/17 11:51:19;;;;;;;16.70;13.80;;;;;;;;;;5131154;27;20027;-58
2023/09/17 11:53:53;;;;;;;17.52;14.15;;;;;;;;;;5131332;27;20059;-57
2023/09/17 11:56:19;;;;;;;16.73;14.30;;;;;;;;;;5131497;27;20019;-58
2023/09/17 11:58:46;;;;;;;16.80;13.82;;;;;;;;;;5131374;27;20024;-57
2023/09/17 12:01:12;;;;;;;17.92;13.60;;;;;;;;;;5131127;27;20106;-57
2023/09/17 12:03:38;;;;;;;17.83;13.60;;;;;;;;;;5131535;27;20055;-60
2023/09/17 12:06:04;;;;;;;16.65;13.18;;;;;;;;;;5130173;27;20054;-60
2023/09/17 12:08:31;;;;;;;16.95;14.02;;;;;;;;;;5131224;27;20027;-60
2023/09/17 12:11:02;;;;;;;17.30;13.63;;;;;;;;;;5130989;27;20437;-59
2023/09/17 12:13:33;;;;;;;16.88;14.50;;;;;;;;;;5131106;27;20102;-58
2023/09/17 12:16:00;;;;;;;17.98;13.50;;;;;;;;;;5131396;27;20044;-52
2023/09/17 12:18:26;;;;;;;20.23;13.33;;;;;;;;;;5130808;27;20024;-59
2023/09/17 12:21:07;;;;;;;16.80;13.75;;;;;;;;;;5129629;27;20015;-60
2023/09/17 12:23:47;;;;;;;16.85;13.30;;;;;;;;;;5130583;27;20027;-57
2023/09/17 12:26:22;;;;;;;16.67;13.20;;;;;;;;;;5086854;22;20041;-62
2023/09/17 12:28:48;;;;;;;17.15;13.50;;;;;;;;;;5051207;28;20049;-63
2023/09/17 12:31:14;;;;;;;16.73;13.50;;;;;;;;;;5066236;28;20447;-63
2023/09/17 12:33:43;;;;;;;16.42;13.35;;;;;;;;;;5051117;28;20017;-63
2023/09/17 12:36:09;;;;;;;17.38;13.25;;;;;;;;;;5050920;28;20017;-64
2023/09/17 12:38:35;;;;;;;19.15;13.63;;;;;;;;;;5049675;28;20021;-63
2023/09/17 12:41:01;;;;;;;18.02;13.48;;;;;;;;;;5049546;28;20555;-58
2023/09/17 12:43:27;;;;;;;18.95;13.25;;;;;;;;;;5051005;28;20029;-56
2023/09/17 12:45:53;;;;;;;16.30;13.30;;;;;;;;;;5049828;28;20061;-52
2023/09/17 12:48:20;;;;;;;16.83;14.07;;;;;;;;;;5052082;28;20617;-57
2023/09/17 12:50:46;;;;;;;16.40;13.60;;;;;;;;;;5053302;28;20025;-56
2023/09/17 12:53:12;;;;;;;16.17;13.10;;;;;;;;;;5053789;28;20025;-56
2023/09/17 12:55:39;;;;;;;16.70;13.27;;;;;;;;;;5054691;28;20087;-55
2023/09/17 12:58:08;;;;;;;15.95;13.32;;;;;;;;;;5051166;28;20021;-57
2023/09/17 13:00:34;;;;;;;16.90;14.40;;;;;;;;;;5051577;28;20092;-52
2023/09/17 13:03:11;;;;;;;17.33;13.90;;;;;;;;;;5054042;28;20479;-53
2023/09/17 13:05:37;;;;;;;16.35;13.68;;;;;;;;;;5054117;28;20390;-57
2023/09/17 13:08:05;;;;;;;16.48;13.93;;;;;;;;;;5054296;28;20083;-54
2023/09/17 13:10:31;;;;;;;17.50;13.80;;;;;;;;;;5054053;28;20025;-53
2023/09/17 13:12:57;;;;;;;18.60;14.05;;;;;;;;;;5051410;28;20028;-56
2023/09/17 13:15:23;;;;;;;17.75;13.90;;;;;;;;;;5051739;28;20029;-56
2023/09/17 13:17:49;;;;;;;17.95;14.38;;;;;;;;;;5052418;28;20025;-57
2023/09/17 13:20:17;;;;;;;16.85;13.90;;;;;;;;;;5053688;28;20025;-55
2023/09/17 13:22:43;;;;;;;18.10;13.93;;;;;;;;;;5052029;28;20017;-54
2023/09/17 13:25:09;;;;;;;16.40;13.88;;;;;;;;;;4702367;28;10000033;-58
2023/09/17 13:27:35;;;;;;;17.40;14.13;;;;;;;;;;5047626;28;20055;-59
2023/09/17 13:30:01;;;;;;;18.42;14.40;;;;;;;;;;5050094;28;20080;-58
2023/09/17 13:32:28;;;;;;;17.48;14.05;;;;;;;;;;5050110;28;20516;-57
2023/09/17 13:34:54;;;;;;;17.20;14.48;;;;;;;;;;5050035;28;20603;-54
2023/09/17 13:37:20;;;;;;;17.75;14.32;;;;;;;;;;5050681;28;20032;-57
2023/09/17 13:39:49;;;;;;;16.42;14.15;;;;;;;;;;5050201;28;20029;-54
2023/09/17 13:42:15;;;;;;;18.33;14.82;;;;;;;;;;5050594;28;20059;-55
2023/09/17 13:44:41;;;;;;;17.20;14.25;;;;;;;;;;5050629;28;20025;-56
2023/09/17 13:47:09;;;;;;;18.95;14.30;;;;;;;;;;5050429;28;20028;-56
2023/09/17 13:49:35;;;;;;;17.17;13.95;;;;;;;;;;5043599;28;20128;-57
2023/09/17 13:52:01;;;;;;;17.20;14.25;;;;;;;;;;5050570;28;20108;-56
2023/09/17 13:54:27;;;;;;;18.17;14.85;;;;;;;;;;5049180;28;20107;-54
2023/09/17 13:56:53;;;;;;;17.10;14.93;;;;;;;;;;5050724;28;20687;-59
2023/09/17 13:59:19;;;;;;;17.58;14.80;;;;;;;;;;5050147;28;20048;-57
2023/09/17 14:01:45;;;;;;;16.40;14.23;;;;;;;;;;5050846;28;20048;-56
2023/09/17 14:04:11;;;;;;;19.02;15.00;;;;;;;;;;5050904;28;20044;-57
2023/09/17 14:06:37;;;;;;;17.02;14.38;;;;;;;;;;5050399;28;20076;-53
2023/09/17 14:09:03;;;;;;;17.45;14.65;;;;;;;;;;5050588;28;20047;-57
2023/09/17 14:11:29;;;;;;;18.42;14.77;;;;;;;;;;5050859;28;20607;-56
2023/09/17 14:13:56;;;;;;;17.30;14.52;;;;;;;;;;5052630;28;20021;-54
2023/09/17 14:16:22;;;;;;;19.25;14.57;;;;;;;;;;4701715;28;10000329;-55